LFBX

Périgueux-Bassillac Airport

Airport
ICAO code
LFBX
IATA Code
PGX
Summary
ICAO Region
EUR
ICAO Territory
Location

, Aquitaine

Serving
Perigueux
Elevation
328 ft
Coordinates
45° 11' 53" N , 0° 48' 56" E
Metar
Observation
LFBX 280430Z AUTO 25005KT 9999 FEW012 BKN060 OVC140 11/10 Q1015
Station
Perigueux
Date/Time
2022-11-28 04:30:00
Wind direction
250°
Wind speed
05 kts
Lowest cloud amount
few clouds
Temperature
11°C
Dew point
10°C
Humidity
93%
QNH
1015 hPa
Weather condition
n/a

Runways

Designator Length Width Surface Rops
12/30 1750 30 ASP No/No

Airport map

Aerial View

SKYbrary Partners:

Safety knowledge contributed by: